sensor_id;sensor_type;location;lat;lon;timestamp;P1;durP1;ratioP1;P2;durP2;ratioP2
3217;SDS011;1621;49.702;8.618;2023-08-20T00:01:41;7.40;;;5.00;;
3217;SDS011;1621;49.702;8.618;2023-08-20T00:04:08;7.30;;;4.87;;
3217;SDS011;1621;49.702;8.618;2023-08-20T00:06:35;8.60;;;5.23;;
3217;SDS011;1621;49.702;8.618;2023-08-20T00:09:01;9.83;;;4.67;;
3217;SDS011;1621;49.702;8.618;2023-08-20T00:11:31;9.70;;;5.53;;
3217;SDS011;1621;49.702;8.618;2023-08-20T00:13:57;12.00;;;5.80;;
3217;SDS011;1621;49.702;8.618;2023-08-20T00:16:25;11.07;;;5.57;;
3217;SDS011;1621;49.702;8.618;2023-08-20T00:18:52;19.40;;;5.40;;
3217;SDS011;1621;49.702;8.618;2023-08-20T00:21:18;8.97;;;5.90;;
3217;SDS011;1621;49.702;8.618;2023-08-20T00:23:45;9.50;;;6.03;;
3217;SDS011;1621;49.702;8.618;2023-08-20T00:26:11;9.23;;;5.80;;
3217;SDS011;1621;49.702;8.618;2023-08-20T00:28:38;8.13;;;5.30;;
3217;SDS011;1621;49.702;8.618;2023-08-20T00:31:04;7.63;;;5.10;;
3217;SDS011;1621;49.702;8.618;2023-08-20T00:33:32;8.77;;;5.13;;
3217;SDS011;1621;49.702;8.618;2023-08-20T00:35:58;6.90;;;5.47;;
3217;SDS011;1621;49.702;8.618;2023-08-20T00:38:24;18.67;;;6.33;;
3217;SDS011;1621;49.702;8.618;2023-08-20T00:40:51;8.57;;;5.43;;
3217;SDS011;1621;49.702;8.618;2023-08-20T00:43:17;10.03;;;5.87;;
3217;SDS011;1621;49.702;8.618;2023-08-20T00:45:43;8.20;;;5.60;;
3217;SDS011;1621;49.702;8.618;2023-08-20T00:48:10;11.30;;;6.20;;
3217;SDS011;1621;49.702;8.618;2023-08-20T00:50:38;7.57;;;5.53;;
3217;SDS011;1621;49.702;8.618;2023-08-20T00:53:05;9.67;;;6.07;;
3217;SDS011;1621;49.702;8.618;2023-08-20T00:55:31;9.03;;;5.37;;
3217;SDS011;1621;49.702;8.618;2023-08-20T00:57:57;5.97;;;4.53;;
3217;SDS011;1621;49.702;8.618;2023-08-20T01:00:24;12.73;;;6.07;;
3217;SDS011;1621;49.702;8.618;2023-08-20T01:02:50;12.63;;;6.40;;
3217;SDS011;1621;49.702;8.618;2023-08-20T01:05:17;8.43;;;6.03;;
3217;SDS011;1621;49.702;8.618;2023-08-20T01:07:52;10.00;;;5.53;;
3217;SDS011;1621;49.702;8.618;2023-08-20T01:10:23;9.80;;;5.90;;
3217;SDS011;1621;49.702;8.618;2023-08-20T01:12:51;7.33;;;5.47;;
3217;SDS011;1621;49.702;8.618;2023-08-20T01:15:17;8.20;;;6.10;;
3217;SDS011;1621;49.702;8.618;2023-08-20T01:17:44;10.80;;;6.00;;
3217;SDS011;1621;49.702;8.618;2023-08-20T01:20:11;9.53;;;5.87;;
3217;SDS011;1621;49.702;8.618;2023-08-20T01:22:48;8.53;;;6.10;;
3217;SDS011;1621;49.702;8.618;2023-08-20T01:25:22;9.37;;;5.20;;
3217;SDS011;1621;49.702;8.618;2023-08-20T01:27:52;8.37;;;5.87;;
3217;SDS011;1621;49.702;8.618;2023-08-20T01:30:20;12.13;;;5.63;;
3217;SDS011;1621;49.702;8.618;2023-08-20T01:32:47;8.70;;;5.57;;
3217;SDS011;1621;49.702;8.618;2023-08-20T01:35:15;8.50;;;5.87;;
3217;SDS011;1621;49.702;8.618;2023-08-20T01:37:42;10.53;;;5.77;;
3217;SDS011;1621;49.702;8.618;2023-08-20T01:40:08;8.30;;;5.30;;
3217;SDS011;1621;49.702;8.618;2023-08-20T01:42:35;6.97;;;5.30;;
3217;SDS011;1621;49.702;8.618;2023-08-20T01:45:02;7.63;;;5.87;;
3217;SDS011;1621;49.702;8.618;2023-08-20T01:47:30;8.87;;;6.17;;
3217;SDS011;1621;49.702;8.618;2023-08-20T01:49:56;13.60;;;6.00;;
3217;SDS011;1621;49.702;8.618;2023-08-20T01:52:22;10.00;;;5.77;;
3217;SDS011;1621;49.702;8.618;2023-08-20T01:54:48;9.33;;;5.93;;
3217;SDS011;1621;49.702;8.618;2023-08-20T01:57:15;9.90;;;6.10;;
3217;SDS011;1621;49.702;8.618;2023-08-20T01:59:41;6.90;;;5.63;;
3217;SDS011;1621;49.702;8.618;2023-08-20T02:02:07;9.60;;;6.43;;
3217;SDS011;1621;49.702;8.618;2023-08-20T02:04:35;10.20;;;6.43;;
3217;SDS011;1621;49.702;8.618;2023-08-20T02:07:01;9.13;;;6.40;;
3217;SDS011;1621;49.702;8.618;2023-08-20T02:09:27;10.03;;;6.13;;
3217;SDS011;1621;49.702;8.618;2023-08-20T02:11:54;9.93;;;6.57;;
3217;SDS011;1621;49.702;8.618;2023-08-20T02:14:20;8.33;;;5.50;;
3217;SDS011;1621;49.702;8.618;2023-08-20T02:16:47;9.83;;;5.83;;
3217;SDS011;1621;49.702;8.618;2023-08-20T02:19:13;8.67;;;6.03;;
3217;SDS011;1621;49.702;8.618;2023-08-20T02:21:41;14.63;;;6.23;;
3217;SDS011;1621;49.702;8.618;2023-08-20T02:24:07;13.93;;;6.50;;
3217;SDS011;1621;49.702;8.618;2023-08-20T02:26:34;8.70;;;6.40;;
3217;SDS011;1621;49.702;8.618;2023-08-20T02:29:00;8.00;;;5.83;;
3217;SDS011;1621;49.702;8.618;2023-08-20T02:31:27;9.00;;;6.30;;
3217;SDS011;1621;49.702;8.618;2023-08-20T02:33:53;9.63;;;6.40;;
3217;SDS011;1621;49.702;8.618;2023-08-20T02:36:20;9.30;;;5.97;;
3217;SDS011;1621;49.702;8.618;2023-08-20T02:38:48;13.67;;;6.80;;
3217;SDS011;1621;49.702;8.618;2023-08-20T02:41:14;9.73;;;6.10;;
3217;SDS011;1621;49.702;8.618;2023-08-20T02:43:40;9.07;;;6.30;;
3217;SDS011;1621;49.702;8.618;2023-08-20T02:46:07;9.00;;;6.40;;
3217;SDS011;1621;49.702;8.618;2023-08-20T02:48:33;9.27;;;6.07;;
3217;SDS011;1621;49.702;8.618;2023-08-20T02:50:59;10.80;;;6.93;;
3217;SDS011;1621;49.702;8.618;2023-08-20T02:53:25;7.80;;;6.13;;
3217;SDS011;1621;49.702;8.618;2023-08-20T02:55:53;10.00;;;6.30;;
3217;SDS011;1621;49.702;8.618;2023-08-20T02:58:19;10.93;;;6.37;;
3217;SDS011;1621;49.702;8.618;2023-08-20T03:00:46;9.63;;;6.37;;
3217;SDS011;1621;49.702;8.618;2023-08-20T03:03:12;12.37;;;6.77;;
3217;SDS011;1621;49.702;8.618;2023-08-20T03:05:39;8.30;;;6.10;;
3217;SDS011;1621;49.702;8.618;2023-08-20T03:08:05;11.97;;;6.30;;
3217;SDS011;1621;49.702;8.618;2023-08-20T03:10:32;8.93;;;6.10;;
3217;SDS011;1621;49.702;8.618;2023-08-20T03:12:59;14.43;;;6.50;;
3217;SDS011;1621;49.702;8.618;2023-08-20T03:15:26;14.70;;;6.80;;
3217;SDS011;1621;49.702;8.618;2023-08-20T03:17:52;11.87;;;7.07;;
3217;SDS011;1621;49.702;8.618;2023-08-20T03:20:18;8.23;;;6.70;;
3217;SDS011;1621;49.702;8.618;2023-08-20T03:22:44;11.93;;;6.40;;
3217;SDS011;1621;49.702;8.618;2023-08-20T03:25:11;10.53;;;7.00;;
3217;SDS011;1621;49.702;8.618;2023-08-20T03:27:37;14.03;;;6.63;;
3217;SDS011;1621;49.702;8.618;2023-08-20T03:30:05;10.80;;;6.77;;
3217;SDS011;1621;49.702;8.618;2023-08-20T03:32:32;12.57;;;6.87;;
3217;SDS011;1621;49.702;8.618;2023-08-20T03:34:58;20.83;;;6.90;;
3217;SDS011;1621;49.702;8.618;2023-08-20T03:37:25;10.80;;;7.27;;
3217;SDS011;1621;49.702;8.618;2023-08-20T03:39:51;8.97;;;6.27;;
3217;SDS011;1621;49.702;8.618;2023-08-20T03:42:17;9.97;;;6.80;;
3217;SDS011;1621;49.702;8.618;2023-08-20T03:44:44;8.83;;;6.80;;
3217;SDS011;1621;49.702;8.618;2023-08-20T03:47:11;9.70;;;7.10;;
3217;SDS011;1621;49.702;8.618;2023-08-20T03:49:38;8.00;;;6.43;;
3217;SDS011;1621;49.702;8.618;2023-08-20T03:52:04;10.93;;;6.37;;
3217;SDS011;1621;49.702;8.618;2023-08-20T03:54:32;7.27;;;6.30;;
3217;SDS011;1621;49.702;8.618;2023-08-20T03:56:58;8.60;;;6.27;;
3217;SDS011;1621;49.702;8.618;2023-08-20T03:59:25;9.13;;;6.97;;
3217;SDS011;1621;49.702;8.618;2023-08-20T04:01:51;10.20;;;6.57;;
3217;SDS011;1621;49.702;8.618;2023-08-20T04:04:19;11.40;;;7.23;;
3217;SDS011;1621;49.702;8.618;2023-08-20T04:06:46;9.47;;;6.33;;
3217;SDS011;1621;49.702;8.618;2023-08-20T04:09:12;9.90;;;6.83;;
3217;SDS011;1621;49.702;8.618;2023-08-20T04:11:38;8.77;;;7.00;;
3217;SDS011;1621;49.702;8.618;2023-08-20T04:14:04;9.93;;;7.27;;
3217;SDS011;1621;49.702;8.618;2023-08-20T04:16:31;12.70;;;6.87;;
3217;SDS011;1621;49.702;8.618;2023-08-20T04:18:57;11.40;;;6.63;;
3217;SDS011;1621;49.702;8.618;2023-08-20T04:21:25;9.17;;;6.93;;
3217;SDS011;1621;49.702;8.618;2023-08-20T04:23:51;12.30;;;7.20;;
3217;SDS011;1621;49.702;8.618;2023-08-20T04:26:17;11.90;;;6.37;;
3217;SDS011;1621;49.702;8.618;2023-08-20T04:28:44;10.80;;;6.83;;
3217;SDS011;1621;49.702;8.618;2023-08-20T04:31:10;9.70;;;7.00;;
3217;SDS011;1621;49.702;8.618;2023-08-20T04:33:36;10.73;;;6.87;;
3217;SDS011;1621;49.702;8.618;2023-08-20T04:36:02;8.00;;;6.57;;
3217;SDS011;1621;49.702;8.618;2023-08-20T04:38:30;8.90;;;7.00;;
3217;SDS011;1621;49.702;8.618;2023-08-20T04:40:56;9.30;;;6.90;;
3217;SDS011;1621;49.702;8.618;2023-08-20T04:43:23;9.90;;;7.00;;
3217;SDS011;1621;49.702;8.618;2023-08-20T04:45:49;11.50;;;7.50;;
3217;SDS011;1621;49.702;8.618;2023-08-20T04:48:15;11.20;;;7.17;;
3217;SDS011;1621;49.702;8.618;2023-08-20T04:50:41;11.20;;;7.33;;
3217;SDS011;1621;49.702;8.618;2023-08-20T04:53:08;9.17;;;7.20;;
3217;SDS011;1621;49.702;8.618;2023-08-20T04:55:35;10.47;;;7.40;;
3217;SDS011;1621;49.702;8.618;2023-08-20T04:58:02;12.70;;;8.67;;
3217;SDS011;1621;49.702;8.618;2023-08-20T05:00:28;15.17;;;8.70;;
3217;SDS011;1621;49.702;8.618;2023-08-20T05:02:54;10.93;;;8.67;;
3217;SDS011;1621;49.702;8.618;2023-08-20T05:05:22;12.13;;;9.30;;
3217;SDS011;1621;49.702;8.618;2023-08-20T05:07:48;11.70;;;8.87;;
3217;SDS011;1621;49.702;8.618;2023-08-20T05:10:14;13.30;;;9.17;;
3217;SDS011;1621;49.702;8.618;2023-08-20T05:12:42;10.67;;;9.40;;
3217;SDS011;1621;49.702;8.618;2023-08-20T05:15:08;14.10;;;9.40;;
3217;SDS011;1621;49.702;8.618;2023-08-20T05:17:35;10.93;;;8.67;;
3217;SDS011;1621;49.702;8.618;2023-08-20T05:20:01;10.40;;;7.63;;
3217;SDS011;1621;49.702;8.618;2023-08-20T05:22:28;13.60;;;8.57;;
3217;SDS011;1621;49.702;8.618;2023-08-20T05:24:54;10.67;;;7.80;;
3217;SDS011;1621;49.702;8.618;2023-08-20T05:27:21;9.67;;;8.03;;
3217;SDS011;1621;49.702;8.618;2023-08-20T05:29:48;11.43;;;8.40;;
3217;SDS011;1621;49.702;8.618;2023-08-20T05:32:15;12.13;;;8.03;;
3217;SDS011;1621;49.702;8.618;2023-08-20T05:34:42;10.90;;;8.73;;
3217;SDS011;1621;49.702;8.618;2023-08-20T05:37:08;10.87;;;8.33;;
3217;SDS011;1621;49.702;8.618;2023-08-20T05:39:36;12.77;;;8.77;;
3217;SDS011;1621;49.702;8.618;2023-08-20T05:42:03;18.03;;;9.03;;
3217;SDS011;1621;49.702;8.618;2023-08-20T05:44:29;11.20;;;8.67;;
3217;SDS011;1621;49.702;8.618;2023-08-20T05:46:57;14.30;;;8.67;;
3217;SDS011;1621;49.702;8.618;2023-08-20T05:49:23;13.03;;;8.93;;
3217;SDS011;1621;49.702;8.618;2023-08-20T05:51:50;15.13;;;8.80;;
3217;SDS011;1621;49.702;8.618;2023-08-20T05:54:16;11.93;;;9.20;;
3217;SDS011;1621;49.702;8.618;2023-08-20T05:56:42;30.70;;;10.93;;
3217;SDS011;1621;49.702;8.618;2023-08-20T05:59:08;17.40;;;8.50;;
3217;SDS011;1621;49.702;8.618;2023-08-20T06:01:35;13.23;;;8.77;;
3217;SDS011;1621;49.702;8.618;2023-08-20T06:04:03;10.97;;;8.90;;
3217;SDS011;1621;49.702;8.618;2023-08-20T06:06:29;9.87;;;8.20;;
3217;SDS011;1621;49.702;8.618;2023-08-20T06:08:55;12.37;;;9.20;;
3217;SDS011;1621;49.702;8.618;2023-08-20T06:11:22;12.40;;;8.70;;
3217;SDS011;1621;49.702;8.618;2023-08-20T06:13:48;12.53;;;9.63;;
3217;SDS011;1621;49.702;8.618;2023-08-20T06:16:14;14.33;;;9.00;;
3217;SDS011;1621;49.702;8.618;2023-08-20T06:18:41;12.53;;;9.00;;
3217;SDS011;1621;49.702;8.618;2023-08-20T06:21:08;14.80;;;9.23;;
3217;SDS011;1621;49.702;8.618;2023-08-20T06:23:34;15.40;;;8.27;;
3217;SDS011;1621;49.702;8.618;2023-08-20T06:26:01;10.80;;;9.10;;
3217;SDS011;1621;49.702;8.618;2023-08-20T06:28:27;15.80;;;9.00;;
3217;SDS011;1621;49.702;8.618;2023-08-20T06:30:53;11.43;;;8.90;;
3217;SDS011;1621;49.702;8.618;2023-08-20T06:33:19;13.13;;;9.63;;
3217;SDS011;1621;49.702;8.618;2023-08-20T06:35:46;11.23;;;8.90;;
3217;SDS011;1621;49.702;8.618;2023-08-20T06:38:13;11.93;;;8.63;;
3217;SDS011;1621;49.702;8.618;2023-08-20T06:40:39;13.33;;;8.40;;
3217;SDS011;1621;49.702;8.618;2023-08-20T06:43:06;12.13;;;8.87;;
3217;SDS011;1621;49.702;8.618;2023-08-20T06:45:32;14.70;;;9.33;;
3217;SDS011;1621;49.702;8.618;2023-08-20T06:47:58;11.77;;;9.40;;
3217;SDS011;1621;49.702;8.618;2023-08-20T06:50:24;11.23;;;8.40;;
3217;SDS011;1621;49.702;8.618;2023-08-20T06:52:51;13.50;;;8.37;;
3217;SDS011;1621;49.702;8.618;2023-08-20T06:55:18;16.73;;;8.90;;
3217;SDS011;1621;49.702;8.618;2023-08-20T06:57:45;14.43;;;8.40;;
3217;SDS011;1621;49.702;8.618;2023-08-20T07:00:11;13.77;;;8.60;;
3217;SDS011;1621;49.702;8.618;2023-08-20T07:02:37;11.83;;;8.77;;
3217;SDS011;1621;49.702;8.618;2023-08-20T07:05:04;11.90;;;8.60;;
3217;SDS011;1621;49.702;8.618;2023-08-20T07:07:30;12.50;;;8.70;;
3217;SDS011;1621;49.702;8.618;2023-08-20T07:09:56;12.77;;;8.33;;
3217;SDS011;1621;49.702;8.618;2023-08-20T07:12:24;10.03;;;7.73;;
3217;SDS011;1621;49.702;8.618;2023-08-20T07:14:50;8.40;;;7.50;;
3217;SDS011;1621;49.702;8.618;2023-08-20T07:17:16;12.33;;;8.47;;
3217;SDS011;1621;49.702;8.618;2023-08-20T07:19:43;10.70;;;8.13;;
3217;SDS011;1621;49.702;8.618;2023-08-20T07:22:09;11.70;;;8.50;;
3217;SDS011;1621;49.702;8.618;2023-08-20T07:24:35;10.07;;;7.70;;
3217;SDS011;1621;49.702;8.618;2023-08-20T07:27:01;12.17;;;7.80;;
3217;SDS011;1621;49.702;8.618;2023-08-20T07:29:37;13.93;;;9.10;;
3217;SDS011;1621;49.702;8.618;2023-08-20T07:32:03;9.37;;;7.00;;
3217;SDS011;1621;49.702;8.618;2023-08-20T07:34:29;11.20;;;8.27;;
3217;SDS011;1621;49.702;8.618;2023-08-20T07:36:58;12.87;;;7.93;;
3217;SDS011;1621;49.702;8.618;2023-08-20T07:39:24;12.37;;;8.07;;
3217;SDS011;1621;49.702;8.618;2023-08-20T07:41:50;9.33;;;7.73;;
3217;SDS011;1621;49.702;8.618;2023-08-20T07:44:17;10.70;;;7.53;;
3217;SDS011;1621;49.702;8.618;2023-08-20T07:46:44;12.50;;;8.33;;
3217;SDS011;1621;49.702;8.618;2023-08-20T07:49:11;13.50;;;8.33;;
3217;SDS011;1621;49.702;8.618;2023-08-20T07:51:37;18.70;;;8.27;;
3217;SDS011;1621;49.702;8.618;2023-08-20T07:54:03;10.23;;;7.43;;
3217;SDS011;1621;49.702;8.618;2023-08-20T07:56:30;11.40;;;7.80;;
3217;SDS011;1621;49.702;8.618;2023-08-20T07:58:56;14.17;;;8.60;;
3217;SDS011;1621;49.702;8.618;2023-08-20T08:01:22;12.67;;;8.17;;
3217;SDS011;1621;49.702;8.618;2023-08-20T08:03:50;10.00;;;7.30;;
3217;SDS011;1621;49.702;8.618;2023-08-20T08:06:16;8.70;;;7.40;;
3217;SDS011;1621;49.702;8.618;2023-08-20T08:08:43;8.60;;;7.00;;
3217;SDS011;1621;49.702;8.618;2023-08-20T08:11:10;10.43;;;7.57;;
3217;SDS011;1621;49.702;8.618;2023-08-20T08:13:36;14.40;;;7.10;;
3217;SDS011;1621;49.702;8.618;2023-08-20T08:16:02;11.30;;;7.20;;
3217;SDS011;1621;49.702;8.618;2023-08-20T08:18:28;9.70;;;7.20;;
3217;SDS011;1621;49.702;8.618;2023-08-20T08:20:56;10.23;;;7.50;;
3217;SDS011;1621;49.702;8.618;2023-08-20T08:23:22;12.30;;;7.50;;
3217;SDS011;1621;49.702;8.618;2023-08-20T08:25:49;10.63;;;6.83;;
3217;SDS011;1621;49.702;8.618;2023-08-20T08:28:15;9.27;;;7.20;;
3217;SDS011;1621;49.702;8.618;2023-08-20T08:30:41;12.83;;;7.97;;
3217;SDS011;1621;49.702;8.618;2023-08-20T08:33:08;11.17;;;6.93;;
3217;SDS011;1621;49.702;8.618;2023-08-20T08:35:34;14.97;;;8.07;;
3217;SDS011;1621;49.702;8.618;2023-08-20T08:38:02;10.47;;;7.30;;
3217;SDS011;1621;49.702;8.618;2023-08-20T08:40:29;10.50;;;7.30;;
3217;SDS011;1621;49.702;8.618;2023-08-20T08:42:55;8.67;;;6.40;;
3217;SDS011;1621;49.702;8.618;2023-08-20T08:45:22;9.37;;;6.90;;
3217;SDS011;1621;49.702;8.618;2023-08-20T08:47:49;12.87;;;7.70;;
3217;SDS011;1621;49.702;8.618;2023-08-20T08:50:15;8.73;;;6.73;;
3217;SDS011;1621;49.702;8.618;2023-08-20T08:52:41;10.87;;;7.50;;
3217;SDS011;1621;49.702;8.618;2023-08-20T08:55:09;9.73;;;6.40;;
3217;SDS011;1621;49.702;8.618;2023-08-20T08:57:36;9.67;;;6.73;;
3217;SDS011;1621;49.702;8.618;2023-08-20T09:00:02;10.00;;;7.03;;
3217;SDS011;1621;49.702;8.618;2023-08-20T09:02:29;10.27;;;6.53;;
3217;SDS011;1621;49.702;8.618;2023-08-20T09:04:55;8.47;;;7.07;;
3217;SDS011;1621;49.702;8.618;2023-08-20T09:07:22;7.60;;;6.33;;
3217;SDS011;1621;49.702;8.618;2023-08-20T09:09:48;9.50;;;6.17;;
3217;SDS011;1621;49.702;8.618;2023-08-20T09:12:17;26.00;;;7.40;;
3217;SDS011;1621;49.702;8.618;2023-08-20T09:14:45;9.23;;;6.20;;
3217;SDS011;1621;49.702;8.618;2023-08-20T09:17:11;11.60;;;6.27;;
3217;SDS011;1621;49.702;8.618;2023-08-20T09:19:38;7.83;;;6.60;;
3217;SDS011;1621;49.702;8.618;2023-08-20T09:22:04;7.80;;;6.40;;
3217;SDS011;1621;49.702;8.618;2023-08-20T09:24:32;9.27;;;6.40;;
3217;SDS011;1621;49.702;8.618;2023-08-20T09:26:59;8.00;;;5.90;;
3217;SDS011;1621;49.702;8.618;2023-08-20T09:29:26;12.30;;;7.10;;
3217;SDS011;1621;49.702;8.618;2023-08-20T09:31:59;10.17;;;6.63;;
3217;SDS011;1621;49.702;8.618;2023-08-20T09:34:26;9.30;;;6.07;;
3217;SDS011;1621;49.702;8.618;2023-08-20T09:37:01;7.80;;;5.97;;
3217;SDS011;1621;49.702;8.618;2023-08-20T09:39:27;7.10;;;5.60;;
3217;SDS011;1621;49.702;8.618;2023-08-20T09:41:54;13.57;;;8.00;;
3217;SDS011;1621;49.702;8.618;2023-08-20T09:44:21;9.53;;;6.80;;
3217;SDS011;1621;49.702;8.618;2023-08-20T09:46:49;10.07;;;7.00;;
3217;SDS011;1621;49.702;8.618;2023-08-20T09:49:16;10.93;;;6.33;;
3217;SDS011;1621;49.702;8.618;2023-08-20T09:51:43;10.80;;;6.00;;
3217;SDS011;1621;49.702;8.618;2023-08-20T09:54:12;11.00;;;6.73;;
3217;SDS011;1621;49.702;8.618;2023-08-20T09:56:39;8.27;;;6.90;;
3217;SDS011;1621;49.702;8.618;2023-08-20T09:59:06;16.83;;;13.83;;
3217;SDS011;1621;49.702;8.618;2023-08-20T10:01:33;11.47;;;7.23;;
3217;SDS011;1621;49.702;8.618;2023-08-20T10:04:02;8.33;;;7.03;;
3217;SDS011;1621;49.702;8.618;2023-08-20T10:06:28;8.40;;;6.77;;
3217;SDS011;1621;49.702;8.618;2023-08-20T10:08:55;10.33;;;6.70;;
3217;SDS011;1621;49.702;8.618;2023-08-20T10:11:22;8.70;;;6.43;;
3217;SDS011;1621;49.702;8.618;2023-08-20T10:13:48;10.50;;;6.70;;
3217;SDS011;1621;49.702;8.618;2023-08-20T10:16:16;7.37;;;5.97;;
3217;SDS011;1621;49.702;8.618;2023-08-20T10:18:44;7.20;;;5.33;;
3217;SDS011;1621;49.702;8.618;2023-08-20T10:21:12;7.97;;;5.03;;
3217;SDS011;1621;49.702;8.618;2023-08-20T10:23:40;9.87;;;5.90;;
3217;SDS011;1621;49.702;8.618;2023-08-20T10:26:06;8.87;;;4.83;;
3217;SDS011;1621;49.702;8.618;2023-08-20T10:28:33;6.43;;;5.50;;
3217;SDS011;1621;49.702;8.618;2023-08-20T10:31:03;6.87;;;5.30;;
3217;SDS011;1621;49.702;8.618;2023-08-20T10:33:29;6.13;;;5.13;;
3217;SDS011;1621;49.702;8.618;2023-08-20T10:35:55;8.27;;;5.30;;
3217;SDS011;1621;49.702;8.618;2023-08-20T10:38:23;10.50;;;5.67;;
3217;SDS011;1621;49.702;8.618;2023-08-20T10:40:51;6.60;;;5.07;;
3217;SDS011;1621;49.702;8.618;2023-08-20T10:43:30;5.70;;;4.43;;
3217;SDS011;1621;49.702;8.618;2023-08-20T10:46:03;8.30;;;4.67;;
3217;SDS011;1621;49.702;8.618;2023-08-20T10:48:29;11.10;;;5.20;;
3217;SDS011;1621;49.702;8.618;2023-08-20T10:50:56;10.57;;;5.80;;
3217;SDS011;1621;49.702;8.618;2023-08-20T10:53:25;8.80;;;5.30;;
3217;SDS011;1621;49.702;8.618;2023-08-20T10:55:51;5.93;;;4.53;;
3217;SDS011;1621;49.702;8.618;2023-08-20T10:58:17;8.60;;;4.93;;
3217;SDS011;1621;49.702;8.618;2023-08-20T11:00:44;7.77;;;4.53;;
3217;SDS011;1621;49.702;8.618;2023-08-20T11:03:10;8.57;;;4.33;;
3217;SDS011;1621;49.702;8.618;2023-08-20T11:05:37;6.33;;;4.67;;
3217;SDS011;1621;49.702;8.618;2023-08-20T11:08:03;7.20;;;4.70;;
3217;SDS011;1621;49.702;8.618;2023-08-20T11:10:34;7.20;;;4.70;;
3217;SDS011;1621;49.702;8.618;2023-08-20T11:13:01;6.20;;;4.10;;
3217;SDS011;1621;49.702;8.618;2023-08-20T11:15:28;4.40;;;3.50;;
3217;SDS011;1621;49.702;8.618;2023-08-20T11:17:54;7.23;;;3.70;;
3217;SDS011;1621;49.702;8.618;2023-08-20T11:20:21;5.70;;;4.30;;
3217;SDS011;1621;49.702;8.618;2023-08-20T11:22:47;8.50;;;4.30;;
3217;SDS011;1621;49.702;8.618;2023-08-20T11:25:13;5.70;;;4.10;;
3217;SDS011;1621;49.702;8.618;2023-08-20T11:27:41;5.87;;;3.80;;
3217;SDS011;1621;49.702;8.618;2023-08-20T11:30:08;7.03;;;3.60;;
3217;SDS011;1621;49.702;8.618;2023-08-20T11:32:35;6.23;;;3.30;;
3217;SDS011;1621;49.702;8.618;2023-08-20T11:35:02;5.13;;;3.40;;
3217;SDS011;1621;49.702;8.618;2023-08-20T11:37:29;5.03;;;3.20;;
3217;SDS011;1621;49.702;8.618;2023-08-20T11:39:55;6.07;;;4.03;;
3217;SDS011;1621;49.702;8.618;2023-08-20T11:42:22;5.50;;;3.63;;
3217;SDS011;1621;49.702;8.618;2023-08-20T11:44:50;5.80;;;3.80;;
3217;SDS011;1621;49.702;8.618;2023-08-20T11:47:16;7.40;;;3.67;;
3217;SDS011;1621;49.702;8.618;2023-08-20T11:49:43;5.17;;;3.53;;
3217;SDS011;1621;49.702;8.618;2023-08-20T11:52:09;5.57;;;3.87;;
3217;SDS011;1621;49.702;8.618;2023-08-20T11:54:35;5.40;;;2.90;;
3217;SDS011;1621;49.702;8.618;2023-08-20T11:57:03;5.40;;;3.13;;
3217;SDS011;1621;49.702;8.618;2023-08-20T11:59:30;5.03;;;3.30;;
3217;SDS011;1621;49.702;8.618;2023-08-20T12:01:58;12.80;;;3.90;;
3217;SDS011;1621;49.702;8.618;2023-08-20T12:04:25;4.23;;;3.00;;
3217;SDS011;1621;49.702;8.618;2023-08-20T12:07:01;7.53;;;3.73;;
3217;SDS011;1621;49.702;8.618;2023-08-20T12:09:28;5.03;;;3.33;;
3217;SDS011;1621;49.702;8.618;2023-08-20T12:11:54;4.37;;;3.20;;
3217;SDS011;1621;49.702;8.618;2023-08-20T12:14:21;4.60;;;3.33;;
3217;SDS011;1621;49.702;8.618;2023-08-20T12:16:47;6.40;;;3.60;;
3217;SDS011;1621;49.702;8.618;2023-08-20T12:19:17;6.70;;;3.73;;
3217;SDS011;1621;49.702;8.618;2023-08-20T12:21:43;8.03;;;3.57;;
3217;SDS011;1621;49.702;8.618;2023-08-20T12:24:09;8.93;;;3.83;;
3217;SDS011;1621;49.702;8.618;2023-08-20T12:26:36;5.13;;;3.70;;
3217;SDS011;1621;49.702;8.618;2023-08-20T12:29:03;6.10;;;3.63;;
3217;SDS011;1621;49.702;8.618;2023-08-20T12:31:29;5.40;;;3.70;;
3217;SDS011;1621;49.702;8.618;2023-08-20T12:33:55;5.00;;;3.80;;
3217;SDS011;1621;49.702;8.618;2023-08-20T12:36:23;7.07;;;4.20;;
3217;SDS011;1621;49.702;8.618;2023-08-20T12:38:49;7.13;;;4.80;;
3217;SDS011;1621;49.702;8.618;2023-08-20T12:41:15;5.97;;;4.30;;
3217;SDS011;1621;49.702;8.618;2023-08-20T12:43:42;4.67;;;3.70;;
3217;SDS011;1621;49.702;8.618;2023-08-20T12:46:08;5.83;;;4.13;;
3217;SDS011;1621;49.702;8.618;2023-08-20T12:48:34;5.60;;;3.63;;
3217;SDS011;1621;49.702;8.618;2023-08-20T12:51:00;5.20;;;3.80;;
3217;SDS011;1621;49.702;8.618;2023-08-20T12:53:29;6.73;;;3.70;;
3217;SDS011;1621;49.702;8.618;2023-08-20T12:55:55;6.53;;;3.57;;
3217;SDS011;1621;49.702;8.618;2023-08-20T12:58:22;12.63;;;3.80;;
3217;SDS011;1621;49.702;8.618;2023-08-20T13:00:48;4.47;;;3.37;;
3217;SDS011;1621;49.702;8.618;2023-08-20T13:03:15;5.10;;;3.33;;
3217;SDS011;1621;49.702;8.618;2023-08-20T13:05:42;5.20;;;3.90;;
3217;SDS011;1621;49.702;8.618;2023-08-20T13:08:09;4.93;;;4.07;;
3217;SDS011;1621;49.702;8.618;2023-08-20T13:10:38;7.63;;;4.67;;
3217;SDS011;1621;49.702;8.618;2023-08-20T13:13:05;5.47;;;3.90;;
3217;SDS011;1621;49.702;8.618;2023-08-20T13:15:34;7.37;;;3.87;;
3217;SDS011;1621;49.702;8.618;2023-08-20T13:18:01;4.37;;;3.63;;
3217;SDS011;1621;49.702;8.618;2023-08-20T13:20:27;5.67;;;4.00;;
3217;SDS011;1621;49.702;8.618;2023-08-20T13:22:54;5.13;;;3.57;;
3217;SDS011;1621;49.702;8.618;2023-08-20T13:25:20;6.30;;;4.27;;
3217;SDS011;1621;49.702;8.618;2023-08-20T13:27:48;7.07;;;3.73;;
3217;SDS011;1621;49.702;8.618;2023-08-20T13:30:15;5.73;;;3.47;;
3217;SDS011;1621;49.702;8.618;2023-08-20T13:32:41;5.30;;;3.23;;
3217;SDS011;1621;49.702;8.618;2023-08-20T13:35:07;8.23;;;3.50;;
3217;SDS011;1621;49.702;8.618;2023-08-20T13:37:34;4.87;;;3.80;;
3217;SDS011;1621;49.702;8.618;2023-08-20T13:40:00;5.37;;;4.10;;
3217;SDS011;1621;49.702;8.618;2023-08-20T13:42:28;6.23;;;3.90;;
3217;SDS011;1621;49.702;8.618;2023-08-20T13:44:56;5.23;;;3.70;;
3217;SDS011;1621;49.702;8.618;2023-08-20T13:47:22;4.33;;;3.13;;
3217;SDS011;1621;49.702;8.618;2023-08-20T13:49:48;6.23;;;3.67;;
3217;SDS011;1621;49.702;8.618;2023-08-20T13:52:15;4.23;;;3.30;;
3217;SDS011;1621;49.702;8.618;2023-08-20T13:54:41;5.63;;;4.00;;
3217;SDS011;1621;49.702;8.618;2023-08-20T13:57:07;9.10;;;4.00;;
3217;SDS011;1621;49.702;8.618;2023-08-20T13:59:34;6.70;;;4.13;;
3217;SDS011;1621;49.702;8.618;2023-08-20T14:02:01;4.20;;;3.33;;
3217;SDS011;1621;49.702;8.618;2023-08-20T14:04:27;4.70;;;3.27;;
3217;SDS011;1621;49.702;8.618;2023-08-20T14:06:54;5.50;;;3.30;;
3217;SDS011;1621;49.702;8.618;2023-08-20T14:09:20;5.27;;;3.53;;
3217;SDS011;1621;49.702;8.618;2023-08-20T14:11:46;7.33;;;4.07;;
3217;SDS011;1621;49.702;8.618;2023-08-20T14:14:13;5.50;;;3.40;;
3217;SDS011;1621;49.702;8.618;2023-08-20T14:16:39;4.60;;;3.40;;
3217;SDS011;1621;49.702;8.618;2023-08-20T14:19:06;4.43;;;2.87;;
3217;SDS011;1621;49.702;8.618;2023-08-20T14:21:33;5.70;;;3.97;;
3217;SDS011;1621;49.702;8.618;2023-08-20T14:23:59;4.87;;;3.10;;
3217;SDS011;1621;49.702;8.618;2023-08-20T14:26:25;4.37;;;3.27;;
3217;SDS011;1621;49.702;8.618;2023-08-20T14:28:52;5.03;;;3.43;;
3217;SDS011;1621;49.702;8.618;2023-08-20T14:31:18;5.60;;;2.90;;
3217;SDS011;1621;49.702;8.618;2023-08-20T14:33:44;7.70;;;3.57;;
3217;SDS011;1621;49.702;8.618;2023-08-20T14:36:12;5.13;;;3.13;;
3217;SDS011;1621;49.702;8.618;2023-08-20T14:38:38;5.00;;;3.50;;
3217;SDS011;1621;49.702;8.618;2023-08-20T14:41:04;6.60;;;3.63;;
3217;SDS011;1621;49.702;8.618;2023-08-20T14:43:31;7.80;;;3.50;;
3217;SDS011;1621;49.702;8.618;2023-08-20T14:45:58;11.47;;;3.37;;
3217;SDS011;1621;49.702;8.618;2023-08-20T14:48:24;6.10;;;2.97;;
3217;SDS011;1621;49.702;8.618;2023-08-20T14:50:51;5.70;;;3.40;;
3217;SDS011;1621;49.702;8.618;2023-08-20T14:53:19;6.73;;;3.73;;
3217;SDS011;1621;49.702;8.618;2023-08-20T14:55:45;4.87;;;3.10;;
3217;SDS011;1621;49.702;8.618;2023-08-20T14:58:11;6.43;;;2.90;;
3217;SDS011;1621;49.702;8.618;2023-08-20T15:00:37;4.27;;;3.30;;
3217;SDS011;1621;49.702;8.618;2023-08-20T15:03:04;3.73;;;2.63;;
3217;SDS011;1621;49.702;8.618;2023-08-20T15:05:31;5.10;;;3.10;;
3217;SDS011;1621;49.702;8.618;2023-08-20T15:07:57;7.47;;;3.10;;